< < Back
Terminal Aerodrome Forecast


Current Version              Previous Versions:   1  2  3  4  5  6  7  8  9  

Terminal Aerodrome Forecast

164
FTUS42 KFFC 281300 AAA
TAFATL
TAF AMD
KATL 281356Z 2814/2918 26009KT P6SM SCT015 BKN050
      TEMPO 2814/2816 BKN015
     FM281600 29010G18KT P6SM SCT050 BKN080
     FM281800 31012G20KT P6SM SCT100
     FM290100 32009KT P6SM SKC
     FM291400 34010G18KT P6SM FEW250=



Latest METAR

452
SAUS70 KWBC 281800 RRI
MTRATL
METAR KATL 281752Z 28015G21KT 10SM FEW050 SCT180 32/21 A2994 RMK AO2
SLP124 T03170206 10317 20256 58006


USA.gov is the U.S. government's official web portal to all federal, state and local government web resources and services.